createdAt,value
2019-02-27T09:44:56.045Z,13.06
2019-02-27T11:03:34.008Z,16.36
2019-02-27T11:13:22.101Z,15.51
2019-02-27T11:23:11.383Z,15.13
2019-02-27T11:33:02.001Z,15.12
2019-02-27T11:42:51.991Z,15.26
2019-02-27T11:53:35.719Z,15.53
2019-02-27T12:04:31.262Z,16.01
2019-02-27T12:15:43.355Z,16.35
2019-02-27T12:26:40.013Z,16.69
2019-02-27T12:36:31.229Z,16.85
2019-02-27T12:46:22.264Z,17.06
2019-02-27T12:56:14.476Z,17.23
2019-02-27T13:06:29.322Z,17.52
2019-02-27T13:16:37.504Z,17.68
2019-02-27T13:26:28.251Z,17.93
2019-02-27T13:36:22.045Z,18.35
2019-02-27T13:46:28.206Z,18.73
2019-02-27T13:56:25.140Z,18.93
2019-02-27T14:07:14.728Z,19.20
2019-02-27T14:19:26.751Z,20.00
2019-02-27T14:30:20.958Z,21.87
2019-02-27T14:40:27.043Z,28.88
2019-02-27T14:50:37.544Z,30.85
2019-02-27T15:00:51.030Z,31.50
2019-02-27T15:10:52.541Z,30.43
2019-02-27T15:20:59.736Z,28.22
2019-02-27T15:31:09.385Z,26.82
2019-02-27T15:41:23.748Z,25.62
2019-02-27T15:51:46.894Z,25.18
2019-02-27T16:01:44.987Z,23.59
2019-02-27T16:12:38.901Z,21.93
2019-02-27T16:24:00.366Z,20.68
2019-02-27T16:33:55.526Z,19.66
2019-02-27T16:46:49.809Z,18.32
2019-02-27T17:01:02.398Z,17.71
2019-02-27T17:18:04.800Z,17.02
2019-02-27T17:40:23.644Z,16.02
2019-02-27T19:06:13.171Z,13.77
2019-02-27T19:15:47.935Z,12.21
2019-02-27T19:25:51.402Z,10.89
2019-02-27T19:35:42.784Z,10.44
2019-02-27T19:45:35.936Z,10.10
2019-02-27T19:56:43.761Z,9.89
2019-02-27T20:06:38.459Z,9.77
2019-02-27T20:16:27.436Z,9.65
2019-02-27T20:27:11.713Z,9.13
2019-02-27T20:36:58.058Z,9.14
2019-02-27T20:46:49.326Z,8.96
2019-02-27T20:56:40.368Z,8.85
2019-02-27T21:28:38.536Z,8.80
2019-02-27T21:38:31.144Z,8.29
2019-02-27T21:48:26.740Z,8.11
2019-02-27T21:59:39.860Z,7.91
2019-02-27T22:09:24.813Z,8.06
2019-02-27T22:19:24.330Z,7.69
2019-02-27T22:39:08.068Z,7.41
2019-02-27T22:49:03.602Z,7.29
2019-02-27T22:58:59.347Z,7.30
2019-02-27T23:08:50.554Z,7.26
2019-02-27T23:18:43.832Z,7.24
2019-02-27T23:28:34.850Z,7.10
2019-02-27T23:38:26.267Z,7.13
2019-02-27T23:48:17.084Z,7.04
2019-02-27T23:58:12.529Z,6.97
